Time;durP1;ratioP1;P1;durP2;ratioP2;P2;SDS_P1;SDS_P2;PMS_P1;PMS_P2;Temp;Humidity;BMP_temperature;BMP_pressure;BME280_temperature;BME280_humidity;BME280_pressure;Samples;Min_cycle;Max_cycle;Signal;HPM_P1;HPM_P2
2021/12/29 00:00:50;;;;;;;14.73;8.57;;;6.10;84.30;;;;;;5064745;28;20241;-75
2021/12/29 00:03:18;;;;;;;14.00;7.50;;;6.10;84.10;;;;;;5065776;28;20251;-75
2021/12/29 00:05:46;;;;;;;17.33;8.37;;;6.10;84.10;;;;;;5065887;28;20691;-75
2021/12/29 00:08:15;;;;;;;15.17;8.33;;;6.10;84.00;;;;;;5059871;28;20205;-75
2021/12/29 00:10:44;;;;;;;15.57;7.57;;;6.10;83.90;;;;;;5062978;28;20223;-75
2021/12/29 00:13:12;;;;;;;13.97;7.93;;;6.10;83.80;;;;;;5065866;28;20690;-75
2021/12/29 00:15:42;;;;;;;14.50;8.00;;;6.10;83.90;;;;;;5065623;28;20191;-75
2021/12/29 00:18:13;;;;;;;12.90;7.27;;;6.10;83.80;;;;;;5066403;28;20280;-74
2021/12/29 00:20:41;;;;;;;13.30;7.50;;;6.10;83.70;;;;;;5063711;28;20770;-75
2021/12/29 00:23:10;;;;;;;13.90;7.83;;;6.10;83.50;;;;;;5064280;28;20187;-75
2021/12/29 00:25:40;;;;;;;17.67;9.00;;;6.10;83.50;;;;;;5066363;28;20586;-75
2021/12/29 00:28:08;;;;;;;17.17;8.30;;;6.10;83.60;;;;;;5062960;28;20194;-75
2021/12/29 00:30:37;;;;;;;16.10;8.87;;;6.10;83.70;;;;;;5063303;28;20222;-75
2021/12/29 00:33:07;;;;;;;16.40;8.77;;;6.10;83.70;;;;;;5065303;28;20322;-75
2021/12/29 00:35:37;;;;;;;16.17;9.03;;;6.10;83.80;;;;;;5067055;28;20186;-75
2021/12/29 00:38:07;;;;;;;16.03;7.43;;;6.10;83.80;;;;;;5064730;28;20187;-76
2021/12/29 00:40:36;;;;;;;13.67;7.43;;;6.10;83.80;;;;;;5062792;28;20194;-76
2021/12/29 00:43:05;;;;;;;14.23;7.53;;;6.10;83.90;;;;;;5064970;28;20204;-76
2021/12/29 00:45:36;;;;;;;13.80;8.17;;;6.10;83.80;;;;;;5066578;28;20207;-75
2021/12/29 00:48:10;;;;;;;17.70;8.17;;;6.10;83.80;;;;;;5061860;28;20205;-75
2021/12/29 00:50:39;;;;;;;19.40;8.87;;;6.10;83.80;;;;;;5065894;28;20209;-75
2021/12/29 00:53:08;;;;;;;15.83;9.00;;;6.10;83.80;;;;;;5066743;28;20203;-75
2021/12/29 00:55:37;;;;;;;13.43;7.17;;;6.10;83.80;;;;;;5063656;28;20186;-75
2021/12/29 00:58:07;;;;;;;14.80;8.40;;;6.10;83.70;;;;;;5062680;28;20203;-75
2021/12/29 01:00:40;;;;;;;13.37;7.53;;;6.10;83.70;;;;;;5063295;28;20654;-75
2021/12/29 01:03:12;;;;;;;13.53;8.13;;;6.10;83.60;;;;;;5064253;28;20195;-75
2021/12/29 01:05:41;;;;;;;13.83;7.53;;;6.10;83.40;;;;;;5065245;28;20209;-75
2021/12/29 01:08:10;;;;;;;16.13;7.70;;;6.10;83.20;;;;;;5058902;28;20544;-75
2021/12/29 01:10:41;;;;;;;12.40;7.33;;;6.10;83.30;;;;;;5060245;28;20214;-75
2021/12/29 01:13:11;;;;;;;13.00;6.70;;;6.10;83.40;;;;;;5060156;28;20368;-75
2021/12/29 01:15:57;;;;;;;13.43;7.47;;;6.00;83.30;;;;;;5063625;28;20656;-75
2021/12/29 01:18:27;;;;;;;14.97;7.47;;;6.10;83.30;;;;;;5063050;28;20255;-75
2021/12/29 01:20:56;;;;;;;15.70;7.63;;;6.10;83.00;;;;;;5059307;28;20187;-75
2021/12/29 01:23:25;;;;;;;15.80;8.33;;;6.00;82.40;;;;;;5061523;28;20205;-75
2021/12/29 01:25:53;;;;;;;13.87;7.70;;;6.00;82.40;;;;;;5064471;28;20597;-75
2021/12/29 01:28:22;;;;;;;12.97;7.47;;;5.90;82.40;;;;;;5055767;28;20708;-75
2021/12/29 01:30:51;;;;;;;15.47;8.07;;;5.90;82.70;;;;;;5058369;28;20218;-75
2021/12/29 01:33:20;;;;;;;16.07;8.10;;;5.90;82.70;;;;;;5063228;28;20236;-75
2021/12/29 01:35:50;;;;;;;15.93;8.20;;;5.90;82.80;;;;;;5058942;28;20189;-75
2021/12/29 01:38:19;;;;;;;15.23;8.27;;;5.90;82.90;;;;;;5063692;28;20209;-75
2021/12/29 01:40:49;;;;;;;14.80;8.27;;;5.90;83.00;;;;;;5063383;28;20198;-75
2021/12/29 01:43:18;;;;;;;14.23;7.77;;;5.90;83.00;;;;;;5063787;28;20194;-76
2021/12/29 01:45:47;;;;;;;16.70;8.27;;;5.90;83.10;;;;;;5061473;28;20202;-75
2021/12/29 01:48:16;;;;;;;17.10;8.30;;;5.90;83.10;;;;;;5061141;28;20205;-76
2021/12/29 01:50:49;;;;;;;17.97;8.63;;;5.90;83.10;;;;;;5063432;28;20226;-76
2021/12/29 01:53:24;;;;;;;17.07;8.60;;;5.90;83.10;;;;;;5064205;28;20198;-75
2021/12/29 01:55:53;;;;;;;15.47;7.47;;;5.90;83.10;;;;;;5056551;28;20186;-75
2021/12/29 01:58:23;;;;;;;13.77;7.20;;;5.90;83.10;;;;;;5061631;28;20194;-75
2021/12/29 02:00:52;;;;;;;15.93;8.03;;;5.90;83.10;;;;;;5060336;28;20191;-76
2021/12/29 02:03:21;;;;;;;14.00;7.80;;;5.90;83.10;;;;;;5063959;28;20190;-75
2021/12/29 02:05:49;;;;;;;14.17;7.60;;;5.90;83.80;;;;;;5060627;28;20641;-75
2021/12/29 02:08:22;;;;;;;14.10;7.00;;;5.90;83.00;;;;;;5062205;28;20202;-74
2021/12/29 02:10:52;;;;;;;14.37;7.53;;;5.90;82.80;;;;;;5063771;28;20198;-75
2021/12/29 02:13:21;;;;;;;15.47;7.73;;;5.90;83.00;;;;;;5062242;28;20197;-76
2021/12/29 02:15:49;;;;;;;16.50;8.23;;;5.90;82.90;;;;;;5064614;28;20190;-75
2021/12/29 02:18:20;;;;;;;17.60;8.37;;;5.90;82.90;;;;;;5060396;28;20232;-76
2021/12/29 02:20:54;;;;;;;16.60;8.50;;;5.80;82.90;;;;;;5062070;28;20875;-76
2021/12/29 02:23:34;;;;;;;17.80;8.33;;;5.80;82.90;;;;;;5060928;28;20199;-76
2021/12/29 02:26:04;;;;;;;16.77;8.30;;;5.80;82.90;;;;;;5060355;28;20707;-75
2021/12/29 02:28:34;;;;;;;16.27;8.57;;;5.80;82.90;;;;;;5055911;28;20640;-75
2021/12/29 02:31:04;;;;;;;16.23;8.33;;;5.80;83.00;;;;;;5059573;28;20206;-76
2021/12/29 02:33:34;;;;;;;17.20;8.57;;;5.80;83.10;;;;;;5058749;28;20222;-75
2021/12/29 02:36:05;;;;;;;14.47;7.27;;;5.80;83.10;;;;;;5060957;28;20562;-75
2021/12/29 02:38:36;;;;;;;16.60;8.00;;;5.80;83.00;;;;;;5062322;28;20199;-76
2021/12/29 02:41:07;;;;;;;16.10;7.93;;;5.80;83.10;;;;;;5063105;28;20195;-75
2021/12/29 02:43:39;;;;;;;18.53;8.67;;;5.80;83.10;;;;;;5062699;28;20182;-76
2021/12/29 02:46:11;;;;;;;16.07;7.97;;;5.80;83.10;;;;;;5061599;28;20191;-76
2021/12/29 02:48:46;;;;;;;14.53;7.83;;;5.80;83.00;;;;;;5062343;28;20194;-75
2021/12/29 02:51:16;;;;;;;15.30;7.87;;;5.80;82.80;;;;;;5061349;28;20214;-76
2021/12/29 02:53:44;;;;;;;15.50;8.00;;;5.70;82.80;;;;;;5062391;28;20245;-76
2021/12/29 02:56:13;;;;;;;21.93;9.90;;;5.70;82.50;;;;;;5061742;28;20190;-76
2021/12/29 02:58:41;;;;;;;16.97;8.60;;;5.70;82.50;;;;;;5060043;28;20190;-75
2021/12/29 03:01:13;;;;;;;15.80;8.03;;;5.70;82.60;;;;;;5059821;28;20194;-76
2021/12/29 03:03:42;;;;;;;19.23;9.30;;;5.70;82.60;;;;;;5060883;28;20191;-77
2021/12/29 03:06:11;;;;;;;19.40;9.63;;;5.70;82.70;;;;;;5058967;28;20206;-76
2021/12/29 03:08:41;;;;;;;21.60;10.27;;;5.70;82.60;;;;;;5059017;28;20191;-75
2021/12/29 03:11:10;;;;;;;20.57;10.00;;;5.70;82.30;;;;;;5061453;28;20734;-75
2021/12/29 03:13:40;;;;;;;19.47;9.50;;;5.60;82.20;;;;;;5062196;28;20878;-75
2021/12/29 03:16:10;;;;;;;16.33;9.27;;;5.60;82.40;;;;;;5051640;28;20671;-75
2021/12/29 03:18:39;;;;;;;15.30;8.47;;;5.60;82.20;;;;;;5061097;28;20198;-75
2021/12/29 03:21:08;;;;;;;14.13;8.10;;;5.50;82.00;;;;;;5061933;28;20198;-76
2021/12/29 03:23:36;;;;;;;19.37;9.50;;;5.50;82.10;;;;;;5062590;28;20194;-75
2021/12/29 03:26:07;;;;;;;19.63;8.47;;;5.50;82.20;;;;;;5061653;28;21113;-75
2021/12/29 03:28:37;;;;;;;17.27;8.47;;;5.50;82.40;;;;;;5061308;28;20190;-76
2021/12/29 03:31:10;;;;;;;16.40;8.10;;;5.50;82.40;;;;;;5062551;28;20218;-76
2021/12/29 03:33:39;;;;;;;18.07;8.87;;;5.50;82.40;;;;;;5066203;28;20644;-75
2021/12/29 03:36:07;;;;;;;19.53;9.60;;;5.50;82.50;;;;;;5081022;28;20205;-75
2021/12/29 03:38:38;;;;;;;23.83;10.60;;;5.50;82.50;;;;;;5079465;28;20202;-76
2021/12/29 03:41:10;;;;;;;21.07;10.67;;;5.50;82.60;;;;;;5082150;28;20185;-75
2021/12/29 03:43:40;;;;;;;19.67;9.73;;;5.50;82.70;;;;;;5081533;28;20190;-75
2021/12/29 03:46:09;;;;;;;19.73;10.50;;;5.50;82.70;;;;;;5082266;28;20201;-76
2021/12/29 03:48:41;;;;;;;19.03;9.47;;;5.50;82.80;;;;;;5079332;28;20207;-75
2021/12/29 03:51:10;;;;;;;19.73;9.57;;;5.60;83.00;;;;;;5081473;28;20266;-76
2021/12/29 03:53:39;;;;;;;17.63;9.23;;;5.60;83.00;;;;;;5078950;28;20197;-75
2021/12/29 03:56:09;;;;;;;17.33;8.70;;;5.60;83.10;;;;;;5070989;28;20204;-75
2021/12/29 03:58:37;;;;;;;17.20;8.93;;;5.60;83.00;;;;;;5081327;28;20205;-76
2021/12/29 04:01:09;;;;;;;20.17;9.37;;;5.60;82.90;;;;;;5080025;28;20201;-76
2021/12/29 04:03:42;;;;;;;17.33;8.90;;;5.60;82.90;;;;;;5079400;28;20877;-75
2021/12/29 04:06:10;;;;;;;16.03;9.23;;;5.60;82.80;;;;;;5072643;28;20703;-75
2021/12/29 04:08:39;;;;;;;20.67;10.30;;;5.60;82.90;;;;;;5081110;28;20186;-75
2021/12/29 04:11:08;;;;;;;21.20;10.60;;;5.60;82.90;;;;;;5083475;28;20225;-75
2021/12/29 04:13:37;;;;;;;22.90;10.37;;;5.60;82.80;;;;;;5082613;28;20212;-75
2021/12/29 04:16:10;;;;;;;21.10;10.40;;;5.60;82.90;;;;;;5081204;28;20210;-76
2021/12/29 04:18:45;;;;;;;21.40;10.73;;;5.70;83.00;;;;;;5077395;28;20182;-76
2021/12/29 04:21:17;;;;;;;23.03;11.50;;;5.70;83.00;;;;;;5066630;28;21388;-76
2021/12/29 04:23:45;;;;;;;28.63;13.00;;;5.70;83.00;;;;;;5080769;28;20200;-75
2021/12/29 04:26:15;;;;;;;26.77;12.57;;;5.70;83.00;;;;;;5079117;28;20193;-76
2021/12/29 04:28:43;;;;;;;34.50;14.07;;;5.70;83.00;;;;;;5076779;28;20201;-75
2021/12/29 04:31:12;;;;;;;29.17;12.80;;;5.70;83.00;;;;;;5082172;28;20329;-75
2021/12/29 04:33:40;;;;;;;25.03;11.87;;;5.60;83.00;;;;;;5087023;28;20218;-75
2021/12/29 04:36:09;;;;;;;32.30;13.20;;;5.60;83.00;;;;;;5080476;28;20198;-76
2021/12/29 04:38:37;;;;;;;36.53;14.37;;;5.70;83.10;;;;;;5082483;28;20556;-76
2021/12/29 04:41:05;;;;;;;23.73;11.77;;;5.60;83.10;;;;;;5087302;28;20198;-76
2021/12/29 04:43:35;;;;;;;23.33;11.50;;;5.60;83.00;;;;;;5088195;28;20198;-75
2021/12/29 04:46:04;;;;;;;24.93;10.70;;;5.60;83.00;;;;;;5088512;28;20705;-75
2021/12/29 04:48:38;;;;;;;26.30;12.30;;;5.60;83.00;;;;;;5084492;28;20275;-75
2021/12/29 04:51:14;;;;;;;22.70;11.50;;;5.60;83.00;;;;;;5083342;28;20685;-75
2021/12/29 04:53:43;;;;;;;25.07;10.90;;;5.60;83.00;;;;;;5085382;28;20204;-75
2021/12/29 04:56:12;;;;;;;23.37;11.37;;;5.70;83.10;;;;;;5084039;28;20200;-75
2021/12/29 04:58:41;;;;;;;23.80;11.40;;;5.70;83.10;;;;;;5084574;28;20247;-75
2021/12/29 05:01:10;;;;;;;24.60;12.07;;;5.60;83.00;;;;;;5083709;28;20189;-75
2021/12/29 05:03:41;;;;;;;23.13;11.73;;;5.70;83.10;;;;;;5084951;28;20279;-75
2021/12/29 05:08:55;;;;;;;23.47;11.90;;;5.70;82.80;;;;;;5084173;28;20189;-75
2021/12/29 05:11:23;;;;;;;24.23;11.33;;;5.70;82.80;;;;;;5084866;28;20194;-75
2021/12/29 05:13:53;;;;;;;25.03;11.37;;;5.60;82.80;;;;;;5085721;28;20193;-76
2021/12/29 05:16:22;;;;;;;23.40;11.77;;;5.60;82.70;;;;;;5085978;28;20193;-76
2021/12/29 05:18:50;;;;;;;27.37;12.93;;;5.60;82.80;;;;;;5080989;28;20200;-75
2021/12/29 05:21:19;;;;;;;29.20;13.60;;;5.60;82.80;;;;;;5080745;28;20198;-75
2021/12/29 05:23:47;;;;;;;28.67;13.07;;;5.60;82.80;;;;;;5081230;28;20186;-76
2021/12/29 05:26:15;;;;;;;28.83;13.43;;;5.60;82.80;;;;;;5085455;28;20189;-75
2021/12/29 05:28:44;;;;;;;29.03;13.60;;;5.60;82.80;;;;;;5084075;28;20277;-75
2021/12/29 05:31:14;;;;;;;37.03;14.80;;;5.60;83.10;;;;;;5083493;28;20204;-75
2021/12/29 05:33:43;;;;;;;29.90;13.87;;;5.60;83.10;;;;;;5084775;28;20218;-75
2021/12/29 05:36:11;;;;;;;31.33;14.30;;;5.60;83.00;;;;;;5080742;28;20552;-75
2021/12/29 05:38:39;;;;;;;27.47;12.60;;;5.60;83.10;;;;;;5085039;28;20198;-75
2021/12/29 05:41:08;;;;;;;24.23;12.97;;;5.60;83.20;;;;;;5077905;28;20197;-75
2021/12/29 05:43:36;;;;;;;27.83;13.10;;;5.60;83.10;;;;;;5083254;28;20190;-75
2021/12/29 05:46:04;;;;;;;27.70;12.73;;;5.50;82.90;;;;;;5083370;28;20769;-75
2021/12/29 05:48:34;;;;;;;26.00;12.50;;;5.60;82.90;;;;;;5082529;28;20192;-76
2021/12/29 05:51:03;;;;;;;23.90;12.40;;;5.50;82.90;;;;;;5081939;28;20193;-75
2021/12/29 05:53:31;;;;;;;24.97;11.07;;;5.60;83.00;;;;;;5079844;28;20803;-75
2021/12/29 05:56:00;;;;;;;28.40;13.50;;;5.60;83.00;;;;;;5082748;28;20671;-75
2021/12/29 05:58:28;;;;;;;27.33;12.70;;;5.60;82.80;;;;;;5085584;28;20734;-75
2021/12/29 06:00:57;;;;;;;30.10;14.07;;;5.60;82.70;;;;;;5081916;28;20216;-75
2021/12/29 06:03:25;;;;;;;35.97;15.97;;;5.60;82.60;;;;;;5078724;28;20194;-75
2021/12/29 06:05:55;;;;;;;40.03;17.63;;;5.50;82.50;;;;;;5084969;28;20194;-75
2021/12/29 06:08:23;;;;;;;31.77;14.20;;;5.50;82.60;;;;;;5074986;28;20197;-75
2021/12/29 06:10:52;;;;;;;30.63;14.93;;;5.50;82.70;;;;;;5081348;28;20196;-75
2021/12/29 06:13:21;;;;;;;35.23;15.30;;;5.50;82.70;;;;;;5079413;28;20849;-75
2021/12/29 06:15:49;;;;;;;31.70;14.93;;;5.50;82.80;;;;;;5082713;28;20196;-74
2021/12/29 06:18:17;;;;;;;25.97;12.80;;;5.50;82.80;;;;;;5086885;28;20201;-75
2021/12/29 06:20:46;;;;;;;30.60;15.17;;;5.50;82.70;;;;;;5083752;28;20196;-74
2021/12/29 06:23:15;;;;;;;28.87;14.63;;;5.50;82.70;;;;;;5077859;28;21841;-75
2021/12/29 06:25:44;;;;;;;33.97;14.93;;;5.40;82.60;;;;;;5083664;28;20196;-75
2021/12/29 06:28:12;;;;;;;26.80;13.00;;;5.40;82.60;;;;;;5081316;28;20758;-75
2021/12/29 06:30:45;;;;;;;28.13;13.53;;;5.40;82.70;;;;;;5081539;28;20182;-75
2021/12/29 06:33:14;;;;;;;29.57;13.27;;;5.40;82.70;;;;;;5079944;28;20237;-75
2021/12/29 06:35:42;;;;;;;27.37;12.30;;;5.40;82.50;;;;;;5085115;28;20231;-74
2021/12/29 06:38:10;;;;;;;25.83;12.90;;;5.40;82.60;;;;;;5079482;28;20197;-75
2021/12/29 06:40:40;;;;;;;31.43;13.10;;;5.40;82.60;;;;;;5080396;28;20197;-75
2021/12/29 06:43:08;;;;;;;27.57;13.37;;;5.40;82.60;;;;;;5082427;28;20561;-76
2021/12/29 06:45:37;;;;;;;27.80;13.40;;;5.40;82.60;;;;;;5083933;28;20201;-75
2021/12/29 06:48:06;;;;;;;33.97;15.57;;;5.40;82.60;;;;;;5080080;28;20212;-75
2021/12/29 06:50:35;;;;;;;36.80;15.70;;;5.30;82.70;;;;;;5079101;28;20201;-75
2021/12/29 06:53:03;;;;;;;29.80;14.33;;;5.30;82.70;;;;;;5080351;28;20302;-75
2021/12/29 06:55:32;;;;;;;31.67;13.83;;;5.30;82.90;;;;;;5083457;28;20190;-74
2021/12/29 06:58:02;;;;;;;32.47;14.33;;;5.30;82.90;;;;;;5083406;28;20926;-74
2021/12/29 07:00:30;;;;;;;33.20;15.40;;;5.30;82.90;;;;;;5081754;28;20194;-75
2021/12/29 07:02:59;;;;;;;35.07;16.07;;;5.30;82.90;;;;;;5079494;28;20221;-74
2021/12/29 07:05:27;;;;;;;37.97;15.37;;;5.30;83.00;;;;;;5083397;28;20190;-74
2021/12/29 07:07:56;;;;;;;31.47;14.80;;;5.30;83.00;;;;;;5078015;28;20197;-74
2021/12/29 07:10:25;;;;;;;30.63;14.23;;;5.30;83.10;;;;;;5083255;28;20202;-75
2021/12/29 07:12:53;;;;;;;33.80;16.13;;;5.30;83.20;;;;;;5083421;28;20706;-74
2021/12/29 07:15:23;;;;;;;35.10;17.30;;;5.30;83.20;;;;;;5080509;28;20202;-74
2021/12/29 07:17:51;;;;;;;34.30;15.87;;;5.30;83.30;;;;;;5082222;28;20200;-74
2021/12/29 07:20:19;;;;;;;34.77;15.77;;;5.30;83.20;;;;;;5083708;28;20197;-74
2021/12/29 07:22:48;;;;;;;35.27;15.67;;;5.30;83.20;;;;;;5076186;28;20208;-74
2021/12/29 07:25:16;;;;;;;34.00;16.03;;;5.20;83.20;;;;;;5079908;28;20209;-74
2021/12/29 07:27:44;;;;;;;34.50;15.30;;;5.20;83.30;;;;;;5081963;28;20190;-75
2021/12/29 07:30:13;;;;;;;29.30;14.73;;;5.30;83.40;;;;;;5081251;28;20205;-75
2021/12/29 07:32:43;;;;;;;34.67;15.37;;;5.20;83.50;;;;;;5085124;28;20198;-75
2021/12/29 07:35:11;;;;;;;34.40;14.97;;;5.20;83.60;;;;;;5077171;28;20183;-75
2021/12/29 07:37:40;;;;;;;37.13;15.70;;;5.20;83.60;;;;;;5082914;28;20193;-75
2021/12/29 07:40:09;;;;;;;39.30;16.00;;;5.20;83.70;;;;;;5083429;28;20858;-74
2021/12/29 07:42:40;;;;;;;38.30;16.17;;;5.20;83.80;;;;;;5077367;28;20836;-75
2021/12/29 07:45:10;;;;;;;43.22;19.15;;;5.20;83.90;;;;;;5080764;28;20437;-74
2021/12/29 07:47:43;;;;;;;39.20;18.40;;;5.20;84.20;;;;;;5083026;28;20193;-75
2021/12/29 07:50:14;;;;;;;45.53;19.50;;;5.20;84.20;;;;;;5081845;28;20303;-74
2021/12/29 07:52:58;;;;;;;40.33;18.70;;;5.20;84.00;;;;;;5083002;28;20899;-75
2021/12/29 07:55:27;;;;;;;43.00;17.67;;;5.10;83.90;;;;;;5083031;28;20307;-76
2021/12/29 07:57:55;;;;;;;37.03;17.17;;;5.20;84.10;;;;;;5083452;28;20197;-76
2021/12/29 08:00:25;;;;;;;36.70;17.73;;;5.20;84.50;;;;;;5083202;28;20194;-76
2021/12/29 08:02:54;;;;;;;36.27;16.87;;;5.10;84.40;;;;;;5083256;28;20201;-76
2021/12/29 08:05:24;;;;;;;41.97;17.77;;;5.20;84.50;;;;;;5079981;28;20751;-78
2021/12/29 08:07:52;;;;;;;47.00;18.40;;;5.20;84.60;;;;;;5086089;28;20703;-78
2021/12/29 08:10:21;;;;;;;43.27;19.40;;;5.30;84.70;;;;;;5089340;28;20182;-78
2021/12/29 08:12:49;;;;;;;46.87;18.53;;;5.30;84.80;;;;;;5087818;28;20181;-75
2021/12/29 08:15:18;;;;;;;44.87;19.00;;;5.30;85.00;;;;;;5087674;28;20562;-74
2021/12/29 08:17:50;;;;;;;41.20;18.63;;;5.30;85.10;;;;;;5088362;28;20186;-76
2021/12/29 08:20:19;;;;;;;45.83;18.67;;;5.30;85.40;;;;;;5082668;28;20309;-75
2021/12/29 08:22:49;;;;;;;45.43;18.67;;;5.30;85.50;;;;;;5085457;28;20814;-75
2021/12/29 08:25:17;;;;;;;48.27;19.77;;;5.30;85.60;;;;;;5086909;28;20201;-75
2021/12/29 08:27:46;;;;;;;48.47;20.20;;;5.30;85.60;;;;;;5087338;28;20194;-76
2021/12/29 08:30:15;;;;;;;52.53;21.67;;;5.30;85.60;;;;;;5086423;28;20197;-75
2021/12/29 08:32:44;;;;;;;50.90;21.50;;;5.30;85.60;;;;;;5085725;28;20246;-75
2021/12/29 08:35:13;;;;;;;46.93;20.37;;;5.30;85.70;;;;;;5088811;28;20224;-75
2021/12/29 08:37:42;;;;;;;47.13;19.87;;;5.30;85.90;;;;;;5085250;28;20189;-76
2021/12/29 08:40:13;;;;;;;42.20;18.40;;;5.30;86.20;;;;;;5083430;28;20639;-76
2021/12/29 08:42:42;;;;;;;48.47;18.53;;;5.30;86.20;;;;;;5085427;28;20178;-76
2021/12/29 08:45:13;;;;;;;45.67;20.50;;;5.30;86.10;;;;;;5085519;28;20189;-75
2021/12/29 08:47:42;;;;;;;50.43;20.17;;;5.40;86.30;;;;;;5073284;28;20268;-76
2021/12/29 08:50:13;;;;;;;44.67;19.03;;;5.40;86.20;;;;;;5086622;28;20198;-76
2021/12/29 08:52:42;;;;;;;46.13;18.40;;;5.50;86.20;;;;;;5085087;28;20178;-77
2021/12/29 08:55:13;;;;;;;47.37;20.23;;;5.60;86.10;;;;;;5066710;28;20218;-75
2021/12/29 08:57:42;;;;;;;53.67;21.00;;;5.60;85.60;;;;;;5082737;28;20185;-75
2021/12/29 09:00:15;;;;;;;51.53;21.00;;;5.60;85.50;;;;;;5085513;28;20197;-75
2021/12/29 09:02:44;;;;;;;47.63;21.33;;;5.70;85.50;;;;;;5083943;28;20542;-76
2021/12/29 09:05:13;;;;;;;45.57;18.90;;;5.70;85.20;;;;;;5086517;28;20248;-76
2021/12/29 09:07:42;;;;;;;51.20;19.30;;;5.80;85.00;;;;;;5087486;28;20250;-76
2021/12/29 09:10:14;;;;;;;48.77;19.67;;;5.80;85.00;;;;;;5085417;28;20197;-76
2021/12/29 09:12:47;;;;;;;48.77;19.60;;;5.80;85.00;;;;;;5085339;28;20865;-77
2021/12/29 09:15:16;;;;;;;39.50;18.20;;;5.90;85.00;;;;;;5087115;28;20823;-76
2021/12/29 09:17:44;;;;;;;35.77;15.87;;;5.90;84.90;;;;;;5085192;28;20225;-76
2021/12/29 09:20:36;;;;;;;42.43;17.77;;;5.90;84.60;;;;;;5085839;28;20190;-77
2021/12/29 09:23:06;;;;;;;37.73;14.23;;;6.00;84.60;;;;;;5085543;28;20201;-73
2021/12/29 09:25:39;;;;;;;34.03;14.63;;;6.00;84.20;;;;;;5086111;28;20204;-76
2021/12/29 09:28:09;;;;;;;31.93;14.93;;;6.00;84.10;;;;;;5084532;28;20190;-76
2021/12/29 09:30:39;;;;;;;31.47;13.87;;;6.00;84.10;;;;;;5084356;28;20457;-76
2021/12/29 09:33:08;;;;;;;34.90;15.37;;;6.10;84.10;;;;;;5084200;28;20205;-75
2021/12/29 09:35:46;;;;;;;29.10;14.10;;;6.10;84.10;;;;;;5085215;28;20205;-76
2021/12/29 09:38:19;;;;;;;29.50;14.57;;;6.20;84.20;;;;;;5084726;28;20943;-75
2021/12/29 09:40:49;;;;;;;31.43;14.63;;;6.30;83.80;;;;;;5085671;28;20194;-76
2021/12/29 09:43:18;;;;;;;33.73;15.20;;;6.30;83.40;;;;;;5085123;28;20628;-76
2021/12/29 09:45:50;;;;;;;35.37;14.57;;;6.30;83.40;;;;;;5084608;28;20284;-76
2021/12/29 09:48:18;;;;;;;30.47;13.50;;;6.40;83.60;;;;;;5080585;28;20194;-76
2021/12/29 09:50:48;;;;;;;27.90;13.67;;;6.50;83.60;;;;;;5082116;28;20693;-75
2021/12/29 09:53:17;;;;;;;39.27;17.60;;;6.60;83.50;;;;;;5083683;28;20209;-76
2021/12/29 09:55:46;;;;;;;42.77;18.00;;;6.60;82.90;;;;;;5085571;28;20218;-76
2021/12/29 09:58:17;;;;;;;40.93;18.17;;;6.60;82.90;;;;;;5083791;28;20182;-75
2021/12/29 10:00:48;;;;;;;45.33;19.30;;;6.60;82.50;;;;;;5083087;28;20215;-76
2021/12/29 10:03:18;;;;;;;42.97;18.00;;;6.50;82.30;;;;;;5078762;28;20202;-76
2021/12/29 10:05:49;;;;;;;40.77;16.83;;;6.50;82.40;;;;;;5084604;28;20193;-76
2021/12/29 10:08:21;;;;;;;39.17;17.03;;;6.60;82.40;;;;;;5083206;28;20582;-76
2021/12/29 10:10:53;;;;;;;42.10;16.97;;;6.60;82.30;;;;;;5084705;28;20191;-76
2021/12/29 10:13:23;;;;;;;35.70;15.87;;;6.60;82.40;;;;;;5080992;28;20507;-76
2021/12/29 10:15:54;;;;;;;42.67;17.30;;;6.60;82.20;;;;;;5080667;28;20237;-76
2021/12/29 10:18:26;;;;;;;38.83;16.63;;;6.70;82.20;;;;;;5085172;28;20273;-77
2021/12/29 10:20:57;;;;;;;33.07;14.93;;;6.70;82.00;;;;;;5085030;28;20178;-76
2021/12/29 10:23:28;;;;;;;37.13;16.17;;;6.60;81.70;;;;;;5073459;28;20683;-77
2021/12/29 10:26:05;;;;;;;43.27;18.17;;;6.70;81.90;;;;;;5086201;28;20181;-77
2021/12/29 10:28:36;;;;;;;40.83;17.40;;;6.70;82.00;;;;;;5085667;28;20194;-75
2021/12/29 10:31:07;;;;;;;33.57;16.17;;;6.70;81.90;;;;;;5083400;28;20606;-75
2021/12/29 10:33:39;;;;;;;35.97;15.87;;;6.80;81.70;;;;;;5086321;28;20280;-76
2021/12/29 10:36:12;;;;;;;37.10;16.23;;;6.80;81.90;;;;;;5087831;28;20582;-75
2021/12/29 10:38:42;;;;;;;37.40;16.50;;;6.80;81.80;;;;;;5085711;28;20182;-76
2021/12/29 10:41:11;;;;;;;37.07;16.37;;;6.80;81.90;;;;;;5084054;28;20205;-77
2021/12/29 10:43:50;;;;;;;42.03;17.07;;;6.90;81.60;;;;;;5083787;28;20647;-76
2021/12/29 10:46:20;;;;;;;36.77;18.00;;;6.90;81.50;;;;;;5085036;28;20182;-77
2021/12/29 10:48:51;;;;;;;31.57;14.43;;;7.00;81.40;;;;;;5084627;28;20187;-77
2021/12/29 10:51:20;;;;;;;41.40;17.07;;;7.00;81.50;;;;;;5083156;28;20178;-78
2021/12/29 10:53:48;;;;;;;43.27;18.07;;;7.00;81.40;;;;;;5077665;28;20194;-75
2021/12/29 10:56:21;;;;;;;41.73;17.57;;;7.10;81.40;;;;;;5081962;28;20214;-74
2021/12/29 10:58:55;;;;;;;41.23;17.23;;;7.00;81.00;;;;;;5082344;28;20197;-74
2021/12/29 11:01:24;;;;;;;42.53;17.80;;;7.10;81.40;;;;;;5083728;28;20198;-74
2021/12/29 11:03:57;;;;;;;42.90;19.73;;;7.10;81.10;;;;;;5083269;28;20187;-75
2021/12/29 11:06:27;;;;;;;44.63;19.33;;;7.10;81.10;;;;;;5081705;28;20181;-74
2021/12/29 11:09:02;;;;;;;41.53;16.80;;;7.10;80.80;;;;;;5083622;28;20176;-75
2021/12/29 11:11:34;;;;;;;41.40;18.20;;;7.10;80.50;;;;;;5077963;28;20884;-75
2021/12/29 11:14:12;;;;;;;42.20;18.60;;;7.00;80.40;;;;;;5083409;28;20701;-74
2021/12/29 11:16:43;;;;;;;45.07;17.60;;;7.00;80.50;;;;;;5082985;28;20202;-74
2021/12/29 11:19:14;;;;;;;42.17;19.00;;;7.00;80.70;;;;;;5073153;28;20179;-74
2021/12/29 11:21:43;;;;;;;46.83;18.33;;;7.00;80.40;;;;;;5082072;28;20546;-75
2021/12/29 11:24:15;;;;;;;34.83;16.37;;;7.10;80.70;;;;;;5083260;28;20186;-76
2021/12/29 11:26:44;;;;;;;41.00;16.80;;;7.10;80.80;;;;;;5083377;28;20567;-76
2021/12/29 11:29:16;;;;;;;41.70;17.50;;;7.20;81.00;;;;;;5084150;28;20191;-75
2021/12/29 11:31:47;;;;;;;33.93;16.07;;;7.20;80.80;;;;;;5083416;28;20269;-75
2021/12/29 11:34:19;;;;;;;42.87;18.20;;;7.20;80.40;;;;;;5083063;28;20468;-75
2021/12/29 11:37:01;;;;;;;41.47;16.13;;;7.20;80.60;;;;;;5082219;28;20222;-76
2021/12/29 11:39:30;;;;;;;41.07;17.30;;;7.20;80.50;;;;;;5084032;28;20191;-75
2021/12/29 11:41:58;;;;;;;38.63;18.17;;;7.20;80.30;;;;;;5082190;28;20202;-76
2021/12/29 11:44:28;;;;;;;41.90;17.87;;;7.20;80.40;;;;;;5082397;28;20188;-76
2021/12/29 11:46:57;;;;;;;33.83;16.73;;;7.20;80.50;;;;;;5083472;28;20194;-76
2021/12/29 11:49:26;;;;;;;42.30;19.07;;;7.20;80.40;;;;;;5048074;28;20209;-75
2021/12/29 11:51:59;;;;;;;44.37;16.90;;;7.20;80.50;;;;;;5083701;28;20544;-76
2021/12/29 11:54:35;;;;;;;39.73;18.70;;;7.20;80.40;;;;;;5079500;28;20198;-76
2021/12/29 11:57:11;;;;;;;38.67;17.10;;;7.30;80.60;;;;;;5083130;28;20213;-75
2021/12/29 11:59:41;;;;;;;45.50;18.10;;;7.30;81.30;;;;;;5082760;28;20626;-76
2021/12/29 12:02:10;;;;;;;46.60;18.70;;;7.30;80.60;;;;;;5083495;28;20196;-76
2021/12/29 12:04:39;;;;;;;46.47;19.60;;;7.30;80.20;;;;;;5082864;28;20269;-75
2021/12/29 12:07:10;;;;;;;42.60;17.80;;;7.40;80.20;;;;;;5083347;28;20644;-75
2021/12/29 12:09:48;;;;;;;41.73;19.90;;;7.40;79.80;;;;;;5084028;28;20865;-75
2021/12/29 12:12:17;;;;;;;39.90;17.53;;;7.30;79.80;;;;;;5083321;28;20630;-76
2021/12/29 12:14:49;;;;;;;45.87;17.83;;;7.30;79.70;;;;;;5079714;28;20193;-75
2021/12/29 12:17:20;;;;;;;38.07;17.70;;;7.30;79.70;;;;;;5081974;28;20198;-75
2021/12/29 12:20:04;;;;;;;46.63;18.43;;;7.20;79.90;;;;;;5082566;28;20182;-76
2021/12/29 12:22:43;;;;;;;41.07;18.30;;;7.20;80.00;;;;;;5083426;28;20183;-76
2021/12/29 12:25:11;;;;;;;46.20;19.33;;;7.20;80.10;;;;;;5082146;28;20414;-75
2021/12/29 12:27:42;;;;;;;40.87;18.47;;;7.20;80.30;;;;;;5081854;28;20448;-76
2021/12/29 12:30:14;;;;;;;43.03;19.13;;;7.20;80.70;;;;;;5082937;28;20179;-76
2021/12/29 12:32:46;;;;;;;41.10;17.43;;;7.10;80.70;;;;;;5083068;28;20197;-75
2021/12/29 12:35:30;;;;;;;42.87;18.57;;;7.10;80.90;;;;;;5079508;28;20186;-77
2021/12/29 12:38:11;;;;;;;40.77;18.17;;;6.90;81.00;;;;;;5082216;28;20204;-75
2021/12/29 12:40:41;;;;;;;41.17;17.57;;;7.00;81.30;;;;;;5063010;28;20182;-76
2021/12/29 12:43:12;;;;;;;42.73;17.57;;;6.90;81.40;;;;;;5074601;28;20195;-76
2021/12/29 12:45:45;;;;;;;43.70;19.30;;;6.90;81.60;;;;;;5084076;28;20578;-76
2021/12/29 12:48:22;;;;;;;41.33;17.90;;;6.90;81.70;;;;;;5074294;28;20198;-75
2021/12/29 12:50:50;;;;;;;38.23;16.27;;;6.90;81.90;;;;;;5082697;28;20196;-75
2021/12/29 12:53:30;;;;;;;38.90;15.63;;;6.80;81.90;;;;;;5081917;28;20191;-76
2021/12/29 12:55:59;;;;;;;33.93;14.67;;;6.70;82.00;;;;;;5087435;28;20206;-76
2021/12/29 12:58:30;;;;;;;33.80;15.33;;;6.70;82.00;;;;;;5083262;28;20190;-76